sensor_id;sensor_type;location;lat;lon;timestamp;P1;durP1;ratioP1;P2;durP2;ratioP2
45620;SDS011;31345;51.522;10.702;2024-02-26T00:01:07;4.20;;;2.70;;
45620;SDS011;31345;51.522;10.702;2024-02-26T00:03:35;4.13;;;2.60;;
45620;SDS011;31345;51.522;10.702;2024-02-26T00:06:03;3.87;;;2.50;;
45620;SDS011;31345;51.522;10.702;2024-02-26T00:08:35;4.07;;;2.80;;
45620;SDS011;31345;51.522;10.702;2024-02-26T00:11:03;5.17;;;2.70;;
45620;SDS011;31345;51.522;10.702;2024-02-26T00:13:37;4.27;;;2.80;;
45620;SDS011;31345;51.522;10.702;2024-02-26T00:16:05;3.57;;;2.70;;
45620;SDS011;31345;51.522;10.702;2024-02-26T00:18:38;4.10;;;2.67;;
45620;SDS011;31345;51.522;10.702;2024-02-26T00:21:05;3.57;;;2.43;;
45620;SDS011;31345;51.522;10.702;2024-02-26T00:23:38;4.43;;;2.40;;
45620;SDS011;31345;51.522;10.702;2024-02-26T00:26:11;3.13;;;2.07;;
45620;SDS011;31345;51.522;10.702;2024-02-26T00:28:45;4.00;;;2.10;;
45620;SDS011;31345;51.522;10.702;2024-02-26T00:31:17;3.40;;;2.23;;
45620;SDS011;31345;51.522;10.702;2024-02-26T00:33:45;4.30;;;2.43;;
45620;SDS011;31345;51.522;10.702;2024-02-26T00:36:12;4.10;;;2.10;;
45620;SDS011;31345;51.522;10.702;2024-02-26T00:38:45;3.07;;;2.07;;
45620;SDS011;31345;51.522;10.702;2024-02-26T00:41:21;5.00;;;2.07;;
45620;SDS011;31345;51.522;10.702;2024-02-26T00:43:55;3.57;;;2.00;;
45620;SDS011;31345;51.522;10.702;2024-02-26T00:46:23;4.73;;;1.80;;
45620;SDS011;31345;51.522;10.702;2024-02-26T00:48:56;3.47;;;2.23;;
45620;SDS011;31345;51.522;10.702;2024-02-26T00:51:28;5.10;;;2.47;;
45620;SDS011;31345;51.522;10.702;2024-02-26T00:53:56;3.03;;;1.90;;
45620;SDS011;31345;51.522;10.702;2024-02-26T00:56:23;4.00;;;2.07;;
45620;SDS011;31345;51.522;10.702;2024-02-26T00:58:58;3.03;;;2.23;;
45620;SDS011;31345;51.522;10.702;2024-02-26T01:01:25;3.33;;;2.07;;
45620;SDS011;31345;51.522;10.702;2024-02-26T01:03:58;2.63;;;1.67;;
45620;SDS011;31345;51.522;10.702;2024-02-26T01:06:30;3.17;;;1.83;;
45620;SDS011;31345;51.522;10.702;2024-02-26T01:08:58;3.83;;;1.93;;
45620;SDS011;31345;51.522;10.702;2024-02-26T01:11:26;4.80;;;2.27;;
45620;SDS011;31345;51.522;10.702;2024-02-26T01:13:53;3.13;;;1.80;;
45620;SDS011;31345;51.522;10.702;2024-02-26T01:16:23;2.33;;;1.60;;
45620;SDS011;31345;51.522;10.702;2024-02-26T01:18:56;2.90;;;1.70;;
45620;SDS011;31345;51.522;10.702;2024-02-26T01:21:29;2.70;;;1.80;;
45620;SDS011;31345;51.522;10.702;2024-02-26T01:23:56;4.20;;;2.10;;
45620;SDS011;31345;51.522;10.702;2024-02-26T01:26:29;2.63;;;1.60;;
45620;SDS011;31345;51.522;10.702;2024-02-26T01:28:57;4.67;;;2.57;;
45620;SDS011;31345;51.522;10.702;2024-02-26T01:31:30;4.90;;;2.30;;
45620;SDS011;31345;51.522;10.702;2024-02-26T01:33:58;4.93;;;2.13;;
45620;SDS011;31345;51.522;10.702;2024-02-26T01:36:26;4.53;;;2.00;;
45620;SDS011;31345;51.522;10.702;2024-02-26T01:38:53;3.60;;;2.00;;
45620;SDS011;31345;51.522;10.702;2024-02-26T01:41:21;4.03;;;2.17;;
45620;SDS011;31345;51.522;10.702;2024-02-26T01:43:48;2.97;;;1.83;;
45620;SDS011;31345;51.522;10.702;2024-02-26T01:46:16;2.97;;;2.10;;
45620;SDS011;31345;51.522;10.702;2024-02-26T01:48:46;4.03;;;1.53;;
45620;SDS011;31345;51.522;10.702;2024-02-26T01:51:16;2.72;;;1.63;;
45620;SDS011;31345;51.522;10.702;2024-02-26T01:53:49;3.57;;;1.60;;
45620;SDS011;31345;51.522;10.702;2024-02-26T01:56:17;2.77;;;1.60;;
45620;SDS011;31345;51.522;10.702;2024-02-26T01:58:52;3.43;;;1.90;;
45620;SDS011;31345;51.522;10.702;2024-02-26T02:01:20;2.63;;;1.80;;
45620;SDS011;31345;51.522;10.702;2024-02-26T02:03:56;3.27;;;2.03;;
45620;SDS011;31345;51.522;10.702;2024-02-26T02:06:30;4.20;;;2.10;;
45620;SDS011;31345;51.522;10.702;2024-02-26T02:09:04;3.13;;;1.80;;
45620;SDS011;31345;51.522;10.702;2024-02-26T02:11:38;2.67;;;1.77;;
45620;SDS011;31345;51.522;10.702;2024-02-26T02:14:11;2.50;;;1.77;;
45620;SDS011;31345;51.522;10.702;2024-02-26T02:16:38;2.13;;;1.50;;
45620;SDS011;31345;51.522;10.702;2024-02-26T02:19:07;3.37;;;1.83;;
45620;SDS011;31345;51.522;10.702;2024-02-26T02:21:36;2.63;;;1.70;;
45620;SDS011;31345;51.522;10.702;2024-02-26T02:24:09;3.47;;;1.53;;
45620;SDS011;31345;51.522;10.702;2024-02-26T02:26:41;3.07;;;1.80;;
45620;SDS011;31345;51.522;10.702;2024-02-26T02:29:09;3.37;;;2.10;;
45620;SDS011;31345;51.522;10.702;2024-02-26T02:31:38;4.23;;;2.13;;
45620;SDS011;31345;51.522;10.702;2024-02-26T02:34:06;3.10;;;2.27;;
45620;SDS011;31345;51.522;10.702;2024-02-26T02:36:51;2.77;;;1.90;;
45620;SDS011;31345;51.522;10.702;2024-02-26T02:39:19;2.53;;;1.70;;
45620;SDS011;31345;51.522;10.702;2024-02-26T02:41:47;2.97;;;1.90;;
45620;SDS011;31345;51.522;10.702;2024-02-26T02:44:19;3.40;;;1.90;;
45620;SDS011;31345;51.522;10.702;2024-02-26T02:46:47;2.97;;;1.63;;
45620;SDS011;31345;51.522;10.702;2024-02-26T02:49:16;2.93;;;1.77;;
45620;SDS011;31345;51.522;10.702;2024-02-26T02:51:43;3.37;;;2.00;;
45620;SDS011;31345;51.522;10.702;2024-02-26T02:54:12;5.43;;;1.90;;
45620;SDS011;31345;51.522;10.702;2024-02-26T02:56:45;2.87;;;1.90;;
45620;SDS011;31345;51.522;10.702;2024-02-26T02:59:17;6.57;;;2.00;;
45620;SDS011;31345;51.522;10.702;2024-02-26T03:01:45;3.10;;;1.93;;
45620;SDS011;31345;51.522;10.702;2024-02-26T03:04:13;2.50;;;1.70;;
45620;SDS011;31345;51.522;10.702;2024-02-26T03:06:45;3.27;;;1.93;;
45620;SDS011;31345;51.522;10.702;2024-02-26T03:09:14;3.37;;;2.27;;
45620;SDS011;31345;51.522;10.702;2024-02-26T03:11:47;4.17;;;1.87;;
45620;SDS011;31345;51.522;10.702;2024-02-26T03:14:19;2.80;;;1.87;;
45620;SDS011;31345;51.522;10.702;2024-02-26T03:16:53;2.17;;;1.50;;
45620;SDS011;31345;51.522;10.702;2024-02-26T03:19:26;2.77;;;1.80;;
45620;SDS011;31345;51.522;10.702;2024-02-26T03:21:53;2.33;;;1.80;;
45620;SDS011;31345;51.522;10.702;2024-02-26T03:24:22;2.40;;;1.67;;
45620;SDS011;31345;51.522;10.702;2024-02-26T03:26:55;2.27;;;1.67;;
45620;SDS011;31345;51.522;10.702;2024-02-26T03:29:28;3.07;;;1.90;;
45620;SDS011;31345;51.522;10.702;2024-02-26T03:32:00;4.33;;;1.80;;
45620;SDS011;31345;51.522;10.702;2024-02-26T03:34:33;4.03;;;1.90;;
45620;SDS011;31345;51.522;10.702;2024-02-26T03:37:06;2.53;;;1.67;;
45620;SDS011;31345;51.522;10.702;2024-02-26T03:39:42;2.20;;;1.60;;
45620;SDS011;31345;51.522;10.702;2024-02-26T03:42:10;2.87;;;1.67;;
45620;SDS011;31345;51.522;10.702;2024-02-26T03:44:37;3.43;;;1.93;;
45620;SDS011;31345;51.522;10.702;2024-02-26T03:47:05;4.57;;;2.27;;
45620;SDS011;31345;51.522;10.702;2024-02-26T03:49:33;5.20;;;2.30;;
45620;SDS011;31345;51.522;10.702;2024-02-26T03:52:05;3.07;;;1.87;;
45620;SDS011;31345;51.522;10.702;2024-02-26T03:54:33;2.73;;;1.77;;
45620;SDS011;31345;51.522;10.702;2024-02-26T03:57:02;2.53;;;1.93;;
45620;SDS011;31345;51.522;10.702;2024-02-26T03:59:35;4.67;;;1.70;;
45620;SDS011;31345;51.522;10.702;2024-02-26T04:02:08;3.50;;;2.00;;
45620;SDS011;31345;51.522;10.702;2024-02-26T04:04:36;2.83;;;1.60;;
45620;SDS011;31345;51.522;10.702;2024-02-26T04:07:08;3.13;;;1.77;;
45620;SDS011;31345;51.522;10.702;2024-02-26T04:09:42;3.83;;;1.60;;
45620;SDS011;31345;51.522;10.702;2024-02-26T04:12:16;3.97;;;2.87;;
45620;SDS011;31345;51.522;10.702;2024-02-26T04:14:49;3.20;;;2.20;;
45620;SDS011;31345;51.522;10.702;2024-02-26T04:17:22;3.93;;;2.17;;
45620;SDS011;31345;51.522;10.702;2024-02-26T04:19:49;3.60;;;2.47;;
45620;SDS011;31345;51.522;10.702;2024-02-26T04:22:17;4.47;;;2.40;;
45620;SDS011;31345;51.522;10.702;2024-02-26T04:24:45;3.70;;;2.47;;
45620;SDS011;31345;51.522;10.702;2024-02-26T04:27:12;6.37;;;3.23;;
45620;SDS011;31345;51.522;10.702;2024-02-26T04:29:41;4.93;;;3.03;;
45620;SDS011;31345;51.522;10.702;2024-02-26T04:32:14;3.80;;;2.67;;
45620;SDS011;31345;51.522;10.702;2024-02-26T04:34:46;2.10;;;1.80;;
45620;SDS011;31345;51.522;10.702;2024-02-26T04:37:19;3.87;;;2.30;;
45620;SDS011;31345;51.522;10.702;2024-02-26T04:39:46;5.60;;;1.93;;
45620;SDS011;31345;51.522;10.702;2024-02-26T04:42:14;3.87;;;2.37;;
45620;SDS011;31345;51.522;10.702;2024-02-26T04:44:43;4.17;;;2.40;;
45620;SDS011;31345;51.522;10.702;2024-02-26T04:47:11;4.30;;;2.40;;
45620;SDS011;31345;51.522;10.702;2024-02-26T04:49:44;4.33;;;2.73;;
45620;SDS011;31345;51.522;10.702;2024-02-26T04:52:11;4.97;;;2.63;;
45620;SDS011;31345;51.522;10.702;2024-02-26T04:54:44;5.17;;;2.43;;
45620;SDS011;31345;51.522;10.702;2024-02-26T04:57:12;4.80;;;2.50;;
45620;SDS011;31345;51.522;10.702;2024-02-26T04:59:46;4.00;;;2.67;;
45620;SDS011;31345;51.522;10.702;2024-02-26T05:02:18;4.80;;;3.20;;
45620;SDS011;31345;51.522;10.702;2024-02-26T05:04:46;3.87;;;2.93;;
45620;SDS011;31345;51.522;10.702;2024-02-26T05:07:13;3.80;;;2.53;;
45620;SDS011;31345;51.522;10.702;2024-02-26T05:09:48;3.17;;;2.20;;
45620;SDS011;31345;51.522;10.702;2024-02-26T05:12:21;3.73;;;2.37;;
45620;SDS011;31345;51.522;10.702;2024-02-26T05:14:50;3.07;;;2.47;;
45620;SDS011;31345;51.522;10.702;2024-02-26T05:17:18;3.80;;;2.40;;
45620;SDS011;31345;51.522;10.702;2024-02-26T05:19:45;6.67;;;3.10;;
45620;SDS011;31345;51.522;10.702;2024-02-26T05:22:13;4.57;;;2.70;;
45620;SDS011;31345;51.522;10.702;2024-02-26T05:24:46;3.93;;;2.70;;
45620;SDS011;31345;51.522;10.702;2024-02-26T05:27:14;3.80;;;2.77;;
45620;SDS011;31345;51.522;10.702;2024-02-26T05:29:47;4.70;;;2.70;;
45620;SDS011;31345;51.522;10.702;2024-02-26T05:32:21;4.00;;;2.70;;
45620;SDS011;31345;51.522;10.702;2024-02-26T05:34:53;5.33;;;3.03;;
45620;SDS011;31345;51.522;10.702;2024-02-26T05:37:21;6.50;;;3.03;;
45620;SDS011;31345;51.522;10.702;2024-02-26T05:39:48;4.53;;;2.83;;
45620;SDS011;31345;51.522;10.702;2024-02-26T05:42:21;5.30;;;2.83;;
45620;SDS011;31345;51.522;10.702;2024-02-26T05:44:54;5.73;;;3.20;;
45620;SDS011;31345;51.522;10.702;2024-02-26T05:47:23;5.07;;;3.37;;
45620;SDS011;31345;51.522;10.702;2024-02-26T05:49:55;5.67;;;3.83;;
45620;SDS011;31345;51.522;10.702;2024-02-26T05:52:25;5.57;;;3.57;;
45620;SDS011;31345;51.522;10.702;2024-02-26T05:54:52;4.63;;;3.33;;
45620;SDS011;31345;51.522;10.702;2024-02-26T05:57:25;5.23;;;3.07;;
45620;SDS011;31345;51.522;10.702;2024-02-26T05:59:53;5.50;;;3.50;;
45620;SDS011;31345;51.522;10.702;2024-02-26T06:02:27;4.87;;;3.47;;
45620;SDS011;31345;51.522;10.702;2024-02-26T06:04:59;5.07;;;3.30;;
45620;SDS011;31345;51.522;10.702;2024-02-26T06:07:32;8.27;;;5.10;;
45620;SDS011;31345;51.522;10.702;2024-02-26T06:09:59;8.23;;;4.70;;
45620;SDS011;31345;51.522;10.702;2024-02-26T06:12:27;7.10;;;4.80;;
45620;SDS011;31345;51.522;10.702;2024-02-26T06:14:56;7.43;;;4.23;;
45620;SDS011;31345;51.522;10.702;2024-02-26T06:17:28;7.55;;;4.68;;
45620;SDS011;31345;51.522;10.702;2024-02-26T06:20:01;7.33;;;4.97;;
45620;SDS011;31345;51.522;10.702;2024-02-26T06:22:30;7.67;;;4.30;;
45620;SDS011;31345;51.522;10.702;2024-02-26T06:25:03;8.73;;;4.47;;
45620;SDS011;31345;51.522;10.702;2024-02-26T06:27:31;6.00;;;4.17;;
45620;SDS011;31345;51.522;10.702;2024-02-26T06:30:04;8.63;;;4.60;;
45620;SDS011;31345;51.522;10.702;2024-02-26T06:32:34;6.73;;;4.57;;
45620;SDS011;31345;51.522;10.702;2024-02-26T06:35:02;6.80;;;3.90;;
45620;SDS011;31345;51.522;10.702;2024-02-26T06:37:32;8.20;;;4.60;;
45620;SDS011;31345;51.522;10.702;2024-02-26T06:40:06;7.50;;;5.03;;
45620;SDS011;31345;51.522;10.702;2024-02-26T06:42:34;6.67;;;4.67;;
45620;SDS011;31345;51.522;10.702;2024-02-26T06:45:01;6.67;;;4.77;;
45620;SDS011;31345;51.522;10.702;2024-02-26T06:47:36;8.20;;;4.77;;
45620;SDS011;31345;51.522;10.702;2024-02-26T06:50:11;9.13;;;5.00;;
45620;SDS011;31345;51.522;10.702;2024-02-26T06:52:39;7.70;;;4.60;;
45620;SDS011;31345;51.522;10.702;2024-02-26T06:55:07;5.63;;;4.30;;
45620;SDS011;31345;51.522;10.702;2024-02-26T06:57:35;9.97;;;5.63;;
45620;SDS011;31345;51.522;10.702;2024-02-26T07:00:08;10.47;;;5.80;;
45620;SDS011;31345;51.522;10.702;2024-02-26T07:02:41;10.23;;;6.90;;
45620;SDS011;31345;51.522;10.702;2024-02-26T07:05:09;11.90;;;7.20;;
45620;SDS011;31345;51.522;10.702;2024-02-26T07:07:42;13.43;;;7.90;;
45620;SDS011;31345;51.522;10.702;2024-02-26T07:10:15;13.27;;;8.50;;
45620;SDS011;31345;51.522;10.702;2024-02-26T07:12:48;18.30;;;10.00;;
45620;SDS011;31345;51.522;10.702;2024-02-26T07:15:15;17.87;;;10.10;;
45620;SDS011;31345;51.522;10.702;2024-02-26T07:17:44;20.70;;;10.23;;
45620;SDS011;31345;51.522;10.702;2024-02-26T07:20:19;18.30;;;11.07;;
45620;SDS011;31345;51.522;10.702;2024-02-26T07:22:47;19.43;;;12.07;;
45620;SDS011;31345;51.522;10.702;2024-02-26T07:25:14;15.73;;;9.73;;
45620;SDS011;31345;51.522;10.702;2024-02-26T07:27:42;22.27;;;12.60;;
45620;SDS011;31345;51.522;10.702;2024-02-26T07:30:10;18.87;;;11.03;;
45620;SDS011;31345;51.522;10.702;2024-02-26T07:32:38;20.40;;;11.00;;
45620;SDS011;31345;51.522;10.702;2024-02-26T07:35:12;19.47;;;11.90;;
45620;SDS011;31345;51.522;10.702;2024-02-26T07:37:40;21.43;;;11.00;;
45620;SDS011;31345;51.522;10.702;2024-02-26T07:40:13;21.33;;;12.83;;
45620;SDS011;31345;51.522;10.702;2024-02-26T07:42:41;18.13;;;11.10;;
45620;SDS011;31345;51.522;10.702;2024-02-26T07:45:09;20.20;;;12.10;;
45620;SDS011;31345;51.522;10.702;2024-02-26T07:47:42;21.13;;;12.07;;
45620;SDS011;31345;51.522;10.702;2024-02-26T07:50:16;17.57;;;11.60;;
45620;SDS011;31345;51.522;10.702;2024-02-26T07:52:43;17.97;;;11.97;;
45620;SDS011;31345;51.522;10.702;2024-02-26T07:55:11;17.50;;;11.77;;
45620;SDS011;31345;51.522;10.702;2024-02-26T07:57:42;18.13;;;11.07;;
45620;SDS011;31345;51.522;10.702;2024-02-26T08:00:10;20.50;;;11.95;;
45620;SDS011;31345;51.522;10.702;2024-02-26T08:02:42;20.33;;;11.90;;
45620;SDS011;31345;51.522;10.702;2024-02-26T08:05:10;21.23;;;12.63;;
45620;SDS011;31345;51.522;10.702;2024-02-26T08:07:39;19.83;;;12.00;;
45620;SDS011;31345;51.522;10.702;2024-02-26T08:10:12;21.50;;;13.97;;
45620;SDS011;31345;51.522;10.702;2024-02-26T08:12:45;21.27;;;13.20;;
45620;SDS011;31345;51.522;10.702;2024-02-26T08:15:13;19.03;;;12.17;;
45620;SDS011;31345;51.522;10.702;2024-02-26T08:17:40;21.57;;;12.97;;
45620;SDS011;31345;51.522;10.702;2024-02-26T08:20:13;21.83;;;13.93;;
45620;SDS011;31345;51.522;10.702;2024-02-26T08:22:42;24.23;;;14.63;;
45620;SDS011;31345;51.522;10.702;2024-02-26T08:25:15;22.40;;;14.03;;
45620;SDS011;31345;51.522;10.702;2024-02-26T08:27:44;24.23;;;14.50;;
45620;SDS011;31345;51.522;10.702;2024-02-26T08:30:18;21.37;;;14.10;;
45620;SDS011;31345;51.522;10.702;2024-02-26T08:32:47;21.50;;;13.53;;
45620;SDS011;31345;51.522;10.702;2024-02-26T08:35:20;23.67;;;14.27;;
45620;SDS011;31345;51.522;10.702;2024-02-26T08:37:49;23.20;;;14.00;;
45620;SDS011;31345;51.522;10.702;2024-02-26T08:40:22;26.37;;;15.27;;
45620;SDS011;31345;51.522;10.702;2024-02-26T08:42:49;22.97;;;14.77;;
45620;SDS011;31345;51.522;10.702;2024-02-26T08:45:22;27.73;;;14.77;;
45620;SDS011;31345;51.522;10.702;2024-02-26T08:47:50;26.93;;;15.87;;
45620;SDS011;31345;51.522;10.702;2024-02-26T08:50:18;26.43;;;16.07;;
45620;SDS011;31345;51.522;10.702;2024-02-26T08:52:45;29.03;;;16.70;;
45620;SDS011;31345;51.522;10.702;2024-02-26T08:55:18;28.02;;;17.42;;
45620;SDS011;31345;51.522;10.702;2024-02-26T08:57:50;31.37;;;18.63;;
45620;SDS011;31345;51.522;10.702;2024-02-26T09:00:18;36.57;;;18.47;;
45620;SDS011;31345;51.522;10.702;2024-02-26T09:02:47;30.10;;;18.50;;
45620;SDS011;31345;51.522;10.702;2024-02-26T09:05:20;35.37;;;21.17;;
45620;SDS011;31345;51.522;10.702;2024-02-26T09:07:52;29.50;;;17.30;;
45620;SDS011;31345;51.522;10.702;2024-02-26T09:10:22;28.70;;;18.47;;
45620;SDS011;31345;51.522;10.702;2024-02-26T09:12:50;31.07;;;19.73;;
45620;SDS011;31345;51.522;10.702;2024-02-26T09:15:18;30.93;;;18.67;;
45620;SDS011;31345;51.522;10.702;2024-02-26T09:17:45;33.73;;;19.37;;
45620;SDS011;31345;51.522;10.702;2024-02-26T09:20:16;32.28;;;20.73;;
45620;SDS011;31345;51.522;10.702;2024-02-26T09:22:51;35.53;;;19.20;;
45620;SDS011;31345;51.522;10.702;2024-02-26T09:25:25;32.60;;;19.33;;
45620;SDS011;31345;51.522;10.702;2024-02-26T09:27:58;30.27;;;18.60;;
45620;SDS011;31345;51.522;10.702;2024-02-26T09:30:26;29.50;;;18.27;;
45620;SDS011;31345;51.522;10.702;2024-02-26T09:32:59;29.13;;;18.93;;
45620;SDS011;31345;51.522;10.702;2024-02-26T09:35:26;31.97;;;19.70;;
45620;SDS011;31345;51.522;10.702;2024-02-26T09:38:00;30.53;;;19.47;;
45620;SDS011;31345;51.522;10.702;2024-02-26T09:40:34;29.53;;;18.20;;
45620;SDS011;31345;51.522;10.702;2024-02-26T09:43:06;31.60;;;18.93;;
45620;SDS011;31345;51.522;10.702;2024-02-26T09:45:46;30.70;;;18.37;;
45620;SDS011;31345;51.522;10.702;2024-02-26T09:48:14;29.67;;;16.43;;
45620;SDS011;31345;51.522;10.702;2024-02-26T09:50:49;27.63;;;17.57;;
45620;SDS011;31345;51.522;10.702;2024-02-26T09:53:22;24.83;;;16.00;;
45620;SDS011;31345;51.522;10.702;2024-02-26T09:55:56;29.03;;;18.23;;
45620;SDS011;31345;51.522;10.702;2024-02-26T09:58:29;27.13;;;16.93;;
45620;SDS011;31345;51.522;10.702;2024-02-26T10:01:02;31.10;;;18.80;;
45620;SDS011;31345;51.522;10.702;2024-02-26T10:03:37;26.60;;;17.33;;
45620;SDS011;31345;51.522;10.702;2024-02-26T10:06:13;28.87;;;17.43;;
45620;SDS011;31345;51.522;10.702;2024-02-26T10:08:40;26.33;;;16.97;;
45620;SDS011;31345;51.522;10.702;2024-02-26T10:11:11;26.33;;;16.43;;
45620;SDS011;31345;51.522;10.702;2024-02-26T10:13:41;31.10;;;17.63;;
45620;SDS011;31345;51.522;10.702;2024-02-26T10:16:14;29.63;;;17.70;;
45620;SDS011;31345;51.522;10.702;2024-02-26T10:18:46;27.27;;;17.57;;
45620;SDS011;31345;51.522;10.702;2024-02-26T10:21:20;26.60;;;17.10;;
45620;SDS011;31345;51.522;10.702;2024-02-26T10:23:53;26.27;;;16.43;;
45620;SDS011;31345;51.522;10.702;2024-02-26T10:26:27;29.83;;;18.27;;
45620;SDS011;31345;51.522;10.702;2024-02-26T10:28:55;25.63;;;18.10;;
45620;SDS011;31345;51.522;10.702;2024-02-26T10:31:27;29.67;;;18.20;;
45620;SDS011;31345;51.522;10.702;2024-02-26T10:34:00;30.70;;;18.63;;
45620;SDS011;31345;51.522;10.702;2024-02-26T10:36:33;27.63;;;17.23;;
45620;SDS011;31345;51.522;10.702;2024-02-26T10:39:01;33.17;;;19.90;;
45620;SDS011;31345;51.522;10.702;2024-02-26T10:41:30;34.70;;;21.33;;
45620;SDS011;31345;51.522;10.702;2024-02-26T10:44:00;29.85;;;19.52;;
45620;SDS011;31345;51.522;10.702;2024-02-26T10:46:32;33.67;;;18.30;;
45620;SDS011;31345;51.522;10.702;2024-02-26T10:49:12;33.13;;;18.90;;
45620;SDS011;31345;51.522;10.702;2024-02-26T10:51:42;30.13;;;19.53;;
45620;SDS011;31345;51.522;10.702;2024-02-26T10:54:12;28.65;;;17.27;;
45620;SDS011;31345;51.522;10.702;2024-02-26T10:56:44;27.38;;;16.73;;
45620;SDS011;31345;51.522;10.702;2024-02-26T10:59:20;27.27;;;17.07;;
45620;SDS011;31345;51.522;10.702;2024-02-26T11:01:49;30.33;;;18.42;;
45620;SDS011;31345;51.522;10.702;2024-02-26T11:04:22;28.88;;;17.45;;
45620;SDS011;31345;51.522;10.702;2024-02-26T11:06:53;31.25;;;18.05;;
45620;SDS011;31345;51.522;10.702;2024-02-26T11:09:28;24.40;;;16.55;;
45620;SDS011;31345;51.522;10.702;2024-02-26T11:12:03;27.80;;;16.65;;
45620;SDS011;31345;51.522;10.702;2024-02-26T11:14:41;27.05;;;16.60;;
45620;SDS011;31345;51.522;10.702;2024-02-26T11:17:16;26.20;;;16.27;;
45620;SDS011;31345;51.522;10.702;2024-02-26T11:19:46;23.13;;;15.18;;
45620;SDS011;31345;51.522;10.702;2024-02-26T11:22:21;22.35;;;15.43;;
45620;SDS011;31345;51.522;10.702;2024-02-26T11:24:57;22.60;;;14.93;;
45620;SDS011;31345;51.522;10.702;2024-02-26T11:27:37;22.92;;;14.88;;
45620;SDS011;31345;51.522;10.702;2024-02-26T11:30:09;21.70;;;15.10;;
45620;SDS011;31345;51.522;10.702;2024-02-26T11:32:44;22.40;;;14.10;;
45620;SDS011;31345;51.522;10.702;2024-02-26T11:35:12;21.58;;;14.63;;
45620;SDS011;31345;51.522;10.702;2024-02-26T11:37:41;23.60;;;16.08;;
45620;SDS011;31345;51.522;10.702;2024-02-26T11:40:23;22.52;;;13.65;;
45620;SDS011;31345;51.522;10.702;2024-02-26T11:42:58;23.38;;;14.07;;
45620;SDS011;31345;51.522;10.702;2024-02-26T11:45:50;21.00;;;13.93;;
45620;SDS011;31345;51.522;10.702;2024-02-26T11:48:24;22.23;;;13.73;;
45620;SDS011;31345;51.522;10.702;2024-02-26T11:50:52;26.17;;;14.90;;
45620;SDS011;31345;51.522;10.702;2024-02-26T11:53:26;20.48;;;13.98;;
45620;SDS011;31345;51.522;10.702;2024-02-26T11:56:13;22.15;;;13.70;;
45620;SDS011;31345;51.522;10.702;2024-02-26T11:59:03;20.27;;;13.55;;
45620;SDS011;31345;51.522;10.702;2024-02-26T12:01:44;19.58;;;13.25;;
45620;SDS011;31345;51.522;10.702;2024-02-26T12:04:15;19.60;;;12.32;;
45620;SDS011;31345;51.522;10.702;2024-02-26T12:06:50;21.23;;;13.98;;
45620;SDS011;31345;51.522;10.702;2024-02-26T12:09:31;20.23;;;12.90;;
45620;SDS011;31345;51.522;10.702;2024-02-26T12:12:05;24.15;;;14.00;;
45620;SDS011;31345;51.522;10.702;2024-02-26T12:14:36;21.33;;;14.82;;
45620;SDS011;31345;51.522;10.702;2024-02-26T12:17:19;25.77;;;14.20;;
45620;SDS011;31345;51.522;10.702;2024-02-26T12:19:47;22.50;;;14.02;;
45620;SDS011;31345;51.522;10.702;2024-02-26T12:22:15;23.08;;;13.48;;
45620;SDS011;31345;51.522;10.702;2024-02-26T12:24:47;20.17;;;14.27;;
45620;SDS011;31345;51.522;10.702;2024-02-26T12:27:26;18.80;;;13.20;;
45620;SDS011;31345;51.522;10.702;2024-02-26T12:30:00;20.35;;;12.88;;
45620;SDS011;31345;51.522;10.702;2024-02-26T12:32:29;20.58;;;13.55;;
45620;SDS011;31345;51.522;10.702;2024-02-26T12:34:57;22.58;;;13.75;;
45620;SDS011;31345;51.522;10.702;2024-02-26T12:37:30;18.50;;;12.68;;
45620;SDS011;31345;51.522;10.702;2024-02-26T12:39:59;20.45;;;12.80;;
45620;SDS011;31345;51.522;10.702;2024-02-26T12:42:27;17.67;;;12.35;;
45620;SDS011;31345;51.522;10.702;2024-02-26T12:44:54;18.90;;;13.38;;
45620;SDS011;31345;51.522;10.702;2024-02-26T12:47:28;21.02;;;13.93;;
45620;SDS011;31345;51.522;10.702;2024-02-26T12:50:02;18.38;;;12.55;;
45620;SDS011;31345;51.522;10.702;2024-02-26T12:52:30;17.73;;;12.30;;
45620;SDS011;31345;51.522;10.702;2024-02-26T12:55:05;16.92;;;11.40;;
45620;SDS011;31345;51.522;10.702;2024-02-26T12:57:39;16.45;;;12.18;;
45620;SDS011;31345;51.522;10.702;2024-02-26T13:00:15;18.15;;;11.85;;
45620;SDS011;31345;51.522;10.702;2024-02-26T13:02:47;18.23;;;11.52;;
45620;SDS011;31345;51.522;10.702;2024-02-26T13:05:20;18.15;;;11.90;;
45620;SDS011;31345;51.522;10.702;2024-02-26T13:07:49;17.27;;;10.88;;
45620;SDS011;31345;51.522;10.702;2024-02-26T13:10:23;20.35;;;11.98;;
45620;SDS011;31345;51.522;10.702;2024-02-26T13:12:57;17.50;;;12.05;;
45620;SDS011;31345;51.522;10.702;2024-02-26T13:15:30;19.85;;;13.40;;
45620;SDS011;31345;51.522;10.702;2024-02-26T13:18:00;17.67;;;12.35;;
45620;SDS011;31345;51.522;10.702;2024-02-26T13:20:41;20.98;;;13.13;;
45620;SDS011;31345;51.522;10.702;2024-02-26T13:23:14;19.35;;;12.40;;
45620;SDS011;31345;51.522;10.702;2024-02-26T13:25:42;26.15;;;15.38;;
45620;SDS011;31345;51.522;10.702;2024-02-26T13:28:15;52.13;;;31.27;;
45620;SDS011;31345;51.522;10.702;2024-02-26T13:30:49;19.92;;;12.07;;
45620;SDS011;31345;51.522;10.702;2024-02-26T13:33:24;18.70;;;11.50;;
45620;SDS011;31345;51.522;10.702;2024-02-26T13:35:53;17.17;;;11.25;;
45620;SDS011;31345;51.522;10.702;2024-02-26T13:38:27;15.85;;;10.52;;
45620;SDS011;31345;51.522;10.702;2024-02-26T13:41:00;17.85;;;10.88;;
45620;SDS011;31345;51.522;10.702;2024-02-26T13:43:33;22.55;;;13.50;;
45620;SDS011;31345;51.522;10.702;2024-02-26T13:46:00;25.05;;;14.07;;
45620;SDS011;31345;51.522;10.702;2024-02-26T13:48:29;12.48;;;7.20;;
45620;SDS011;31345;51.522;10.702;2024-02-26T13:50:57;10.80;;;6.35;;
45620;SDS011;31345;51.522;10.702;2024-02-26T13:53:24;11.68;;;7.45;;
45620;SDS011;31345;51.522;10.702;2024-02-26T13:55:52;11.57;;;6.63;;
45620;SDS011;31345;51.522;10.702;2024-02-26T13:58:25;11.38;;;7.35;;
45620;SDS011;31345;51.522;10.702;2024-02-26T14:01:01;11.43;;;6.97;;
45620;SDS011;31345;51.522;10.702;2024-02-26T14:03:29;10.20;;;7.25;;
45620;SDS011;31345;51.522;10.702;2024-02-26T14:06:02;12.07;;;7.03;;
45620;SDS011;31345;51.522;10.702;2024-02-26T14:08:30;10.75;;;6.63;;
45620;SDS011;31345;51.522;10.702;2024-02-26T14:11:03;9.77;;;6.47;;
45620;SDS011;31345;51.522;10.702;2024-02-26T14:13:30;11.13;;;6.68;;
45620;SDS011;31345;51.522;10.702;2024-02-26T14:15:58;9.88;;;6.43;;
45620;SDS011;31345;51.522;10.702;2024-02-26T14:18:27;9.07;;;6.65;;
45620;SDS011;31345;51.522;10.702;2024-02-26T14:21:00;12.07;;;7.30;;
45620;SDS011;31345;51.522;10.702;2024-02-26T14:23:33;8.93;;;6.93;;
45620;SDS011;31345;51.522;10.702;2024-02-26T14:26:00;10.45;;;6.90;;
45620;SDS011;31345;51.522;10.702;2024-02-26T14:28:28;11.63;;;7.28;;
45620;SDS011;31345;51.522;10.702;2024-02-26T14:30:56;12.80;;;7.70;;
45620;SDS011;31345;51.522;10.702;2024-02-26T14:33:30;10.52;;;7.40;;
45620;SDS011;31345;51.522;10.702;2024-02-26T14:35:57;12.05;;;8.20;;
45620;SDS011;31345;51.522;10.702;2024-02-26T14:38:30;12.68;;;7.97;;
45620;SDS011;31345;51.522;10.702;2024-02-26T14:40:58;11.95;;;8.63;;
45620;SDS011;31345;51.522;10.702;2024-02-26T14:43:25;12.23;;;7.85;;